Time;durP1;ratioP1;P1;durP2;ratioP2;P2;SDS_P1;SDS_P2;PMS_P1;PMS_P2;Temp;Humidity;BMP_temperature;BMP_pressure;BME280_temperature;BME280_humidity;BME280_pressure;Samples;Min_cycle;Max_cycle;Signal;HPM_P1;HPM_P2
2022/03/17 00:02:11;;;;;;;242.22;123.90;;;;;;;1.84;67.35;95629.48;1697930;83;21167;-50
2022/03/17 00:04:40;;;;;;;241.55;125.90;;;;;;;1.83;67.56;95630.64;1694524;83;21015;-50
2022/03/17 00:07:07;;;;;;;230.40;122.58;;;;;;;1.82;67.68;95620.95;1711891;82;21104;-51
2022/03/17 00:09:35;;;;;;;254.90;128.02;;;;;;;1.84;67.88;95632.20;1729888;82;21034;-51
2022/03/17 00:12:05;;;;;;;240.80;125.70;;;;;;;1.85;68.03;95631.84;1729525;82;20983;-50
2022/03/17 00:14:34;;;;;;;246.32;125.92;;;;;;;1.92;68.14;95632.51;1728084;81;21628;-51
2022/03/17 00:17:01;;;;;;;254.43;132.55;;;;;;;1.95;67.85;95630.41;1721244;82;21014;-50
2022/03/17 00:19:30;;;;;;;283.13;144.25;;;;;;;2.01;67.67;95635.70;1718963;82;21011;-50
2022/03/17 00:21:59;;;;;;;297.67;146.98;;;;;;;2.03;67.48;95632.03;1726472;81;21099;-50
2022/03/17 00:24:26;;;;;;;328.67;155.75;;;;;;;2.04;67.24;95636.30;1738252;81;21023;-51
2022/03/17 00:26:55;;;;;;;326.88;154.50;;;;;;;2.04;67.16;95635.75;1737054;82;21558;-50
2022/03/17 00:29:23;;;;;;;274.37;136.90;;;;;;;2.04;66.96;95635.75;1725736;82;21021;-51
2022/03/17 00:31:51;;;;;;;273.85;134.52;;;;;;;2.01;66.70;95630.27;1705357;82;20975;-51
2022/03/17 00:34:18;;;;;;;253.27;126.85;;;;;;;1.93;66.59;95638.14;1699839;83;21534;-50
2022/03/17 00:36:47;;;;;;;226.05;115.37;;;;;;;1.85;66.73;95629.70;1700197;83;21053;-50
2022/03/17 00:39:15;;;;;;;252.20;124.42;;;;;;;1.78;66.72;95632.34;1700015;83;21167;-49
2022/03/17 00:41:45;;;;;;;222.55;115.75;;;;;;;1.72;66.79;95637.86;1699272;84;21065;-51
2022/03/17 00:44:14;;;;;;;234.75;120.20;;;;;;;1.66;66.84;95633.16;1699797;82;21073;-50
2022/03/17 00:46:41;;;;;;;229.32;115.22;;;;;;;1.57;66.86;95636.14;1701737;83;20990;-50
2022/03/17 00:49:12;;;;;;;241.20;123.18;;;;;;;1.50;67.03;95638.75;1701804;83;21100;-50
2022/03/17 00:51:40;;;;;;;223.50;118.13;;;;;;;1.40;67.04;95640.76;1701660;84;21221;-50
2022/03/17 00:54:07;;;;;;;227.60;118.28;;;;;;;1.31;67.21;95633.45;1699524;82;21554;-52
2022/03/17 00:56:37;;;;;;;216.63;112.97;;;;;;;1.22;67.53;95634.87;1698865;82;21125;-50
2022/03/17 00:59:06;;;;;;;198.60;103.58;;;;;;;1.21;67.89;95639.52;1701194;84;21026;-50
2022/03/17 01:01:34;;;;;;;196.32;100.40;;;;;;;1.25;68.02;95639.55;1698800;82;21077;-50
2022/03/17 01:04:02;;;;;;;159.22;80.77;;;;;;;1.24;67.56;95634.72;1700921;84;22130;-50
2022/03/17 01:06:30;;;;;;;143.75;77.67;;;;;;;1.21;67.43;95636.81;1698284;82;21002;-50
2022/03/17 01:08:57;;;;;;;134.30;74.92;;;;;;;1.17;67.36;95636.55;1699152;83;21065;-51
2022/03/17 01:11:24;;;;;;;122.78;67.05;;;;;;;1.13;67.25;95637.08;1699441;83;21089;-50
2022/03/17 01:13:52;;;;;;;118.60;68.62;;;;;;;1.07;67.14;95638.52;1700407;82;20978;-52
2022/03/17 01:16:20;;;;;;;127.97;67.70;;;;;;;0.97;67.20;95638.56;1701689;84;21087;-50
2022/03/17 01:18:48;;;;;;;165.65;84.67;;;;;;;0.90;67.42;95630.34;1708094;82;21534;-51
2022/03/17 01:21:15;;;;;;;195.82;96.90;;;;;;;0.86;67.49;95640.91;1724008;82;21499;-54
2022/03/17 01:23:42;;;;;;;160.22;83.30;;;;;;;0.80;67.78;95640.42;1725016;82;21010;-51
2022/03/17 01:26:09;;;;;;;322.50;146.72;;;;;;;0.76;68.20;95642.30;1729190;82;21026;-49
2022/03/17 01:28:37;;;;;;;233.15;113.75;;;;;;;0.72;68.31;95641.47;1717422;81;21133;-49
2022/03/17 01:31:05;;;;;;;200.32;100.97;;;;;;;0.70;68.41;95642.97;1728336;82;20992;-51
2022/03/17 01:33:33;;;;;;;199.38;99.17;;;;;;;0.64;68.37;95642.52;1726920;82;21009;-51
2022/03/17 01:36:01;;;;;;;170.22;85.07;;;;;;;0.53;68.69;95640.19;1729749;82;20988;-50
2022/03/17 01:38:30;;;;;;;153.42;78.30;;;;;;;0.45;68.89;95634.43;1732278;82;21168;-51
2022/03/17 01:40:57;;;;;;;120.60;65.37;;;;;;;0.41;69.05;95633.59;1720323;82;21910;-51
2022/03/17 01:43:24;;;;;;;109.00;60.75;;;;;;;0.38;69.27;95632.97;1729726;82;21100;-50
2022/03/17 01:45:54;;;;;;;118.87;62.75;;;;;;;0.31;69.43;95639.63;1723531;82;21036;-49
2022/03/17 01:48:21;;;;;;;128.02;66.97;;;;;;;0.33;69.93;95643.30;1727988;82;21004;-51
2022/03/17 01:50:50;;;;;;;153.65;75.40;;;;;;;0.42;70.15;95649.28;1724708;82;20998;-50
2022/03/17 01:53:22;;;;;;;153.25;79.37;;;;;;;0.53;70.41;95649.66;1686964;84;21166;-51
2022/03/17 01:55:49;;;;;;;176.00;82.97;;;;;;;0.64;70.14;95651.98;1688081;84;21065;-51
2022/03/17 01:58:17;;;;;;;175.85;89.05;;;;;;;0.75;70.06;95647.51;1684954;84;21348;-52
2022/03/17 02:00:45;;;;;;;177.35;91.95;;;;;;;0.88;69.73;95644.83;1671411;84;21464;-50
2022/03/17 02:03:14;;;;;;;184.15;91.35;;;;;;;0.95;69.43;95653.05;1654753;85;20957;-50
2022/03/17 02:05:43;;;;;;;156.28;82.78;;;;;;;1.00;69.28;95647.31;1637552;86;21205;-51
2022/03/17 02:08:17;;;;;;;191.95;98.12;;;;;;;1.01;68.92;95649.47;1631016;86;21203;-50
2022/03/17 02:13:32;;;;;;;179.45;91.25;;;;;;;0.82;69.04;95654.41;1642686;86;21561;-52
2022/03/17 02:16:03;;;;;;;172.62;91.80;;;;;;;0.77;69.40;95649.28;1632275;86;21076;-50
2022/03/17 02:18:32;;;;;;;170.05;89.77;;;;;;;0.76;69.45;95655.84;1687093;83;20971;-51
2022/03/17 02:20:59;;;;;;;165.05;88.67;;;;;;;0.70;69.53;95655.95;1689256;83;21519;-50
2022/03/17 02:26:15;;;;;;;291.70;142.90;;;;;;;0.68;70.13;95652.83;1695823;84;21011;-49
2022/03/17 02:28:43;;;;;;;360.13;162.92;;;;;;;0.72;70.18;95653.66;1692179;84;21037;-51
2022/03/17 02:31:11;;;;;;;328.48;151.42;;;;;;;0.83;70.37;95656.53;1700144;84;21145;-50
2022/03/17 02:33:42;;;;;;;375.38;175.42;;;;;;;0.96;70.55;95651.90;1698907;84;21011;-51
2022/03/17 02:36:10;;;;;;;318.48;153.68;;;;;;;1.13;70.23;95658.16;1689171;84;21530;-51
2022/03/17 02:38:37;;;;;;;260.60;127.12;;;;;;;1.27;69.63;95661.09;1695305;84;20974;-50
2022/03/17 02:41:05;;;;;;;245.48;120.60;;;;;;;1.27;69.35;95663.80;1694827;84;21150;-50
2022/03/17 02:43:33;;;;;;;221.00;112.20;;;;;;;1.35;69.44;95664.68;1661286;86;22163;-49
2022/03/17 02:46:00;;;;;;;230.90;111.97;;;;;;;1.45;69.20;95671.60;1663891;85;21047;-49
2022/03/17 02:48:28;;;;;;;197.93;96.92;;;;;;;1.56;68.83;95673.90;1660877;85;21075;-49
2022/03/17 02:50:55;;;;;;;184.70;91.80;;;;;;;1.59;68.30;95669.09;1655640;85;20986;-50
2022/03/17 02:53:23;;;;;;;161.28;85.60;;;;;;;1.51;68.29;95676.91;1660137;84;20983;-50
2022/03/17 02:55:51;;;;;;;163.92;92.02;;;;;;;1.45;68.26;95682.45;1659532;85;21514;-50
2022/03/17 02:58:18;;;;;;;160.43;88.90;;;;;;;1.38;68.51;95681.00;1663386;85;22194;-51
2022/03/17 03:00:46;;;;;;;168.90;91.30;;;;;;;1.40;68.69;95677.35;1659990;85;20986;-50
2022/03/17 03:03:17;;;;;;;177.38;92.47;;;;;;;1.44;68.35;95682.24;1659244;85;21597;-50
2022/03/17 03:05:45;;;;;;;219.60;106.83;;;;;;;1.42;68.19;95679.68;1666644;85;21467;-50
2022/03/17 03:08:14;;;;;;;215.60;111.35;;;;;;;1.24;68.12;95686.21;1646280;86;21292;-50
2022/03/17 03:10:44;;;;;;;233.60;119.57;;;;;;;1.07;68.54;95686.72;1645403;86;21556;-50
2022/03/17 03:13:13;;;;;;;258.57;124.47;;;;;;;0.98;68.88;95685.41;1645641;87;21469;-50
2022/03/17 03:15:40;;;;;;;259.43;128.05;;;;;;;0.92;69.18;95686.28;1645769;87;21060;-50
2022/03/17 03:18:09;;;;;;;280.90;140.18;;;;;;;0.86;69.29;95693.16;1645820;86;21017;-50
2022/03/17 03:20:37;;;;;;;301.82;147.90;;;;;;;0.80;69.42;95695.94;1645528;87;21079;-51
2022/03/17 03:23:05;;;;;;;323.07;156.18;;;;;;;0.76;69.78;95689.69;1645631;87;20981;-50
2022/03/17 03:25:32;;;;;;;239.10;121.02;;;;;;;0.77;69.87;95693.20;1645727;87;20980;-50
2022/03/17 03:28:09;;;;;;;225.75;112.12;;;;;;;0.76;70.03;95701.11;1645601;86;21033;-50
2022/03/17 03:30:38;;;;;;;253.45;120.45;;;;;;;0.71;70.19;95703.54;1645486;86;21072;-50
2022/03/17 03:33:08;;;;;;;235.55;111.92;;;;;;;0.70;70.43;95706.03;1645993;86;21167;-50
2022/03/17 03:38:23;;;;;;;212.65;100.12;;;;;;;0.76;70.49;95712.70;1646152;87;21033;-55
2022/03/17 03:40:50;;;;;;;221.30;108.97;;;;;;;0.77;70.32;95721.62;1645757;87;21084;-50
2022/03/17 03:43:17;;;;;;;223.43;110.37;;;;;;;0.69;70.37;95717.22;1645765;87;21072;-50
2022/03/17 03:45:44;;;;;;;189.70;96.78;;;;;;;0.64;70.62;95715.61;1645667;87;21163;-51
2022/03/17 03:48:12;;;;;;;206.55;100.87;;;;;;;0.61;70.70;95715.54;1645559;86;21437;-50
2022/03/17 03:50:39;;;;;;;312.60;150.93;;;;;;;0.55;70.83;95723.17;1645629;87;21104;-50
2022/03/17 03:53:06;;;;;;;256.98;120.90;;;;;;;0.55;71.39;95731.29;1645851;87;21449;-50
2022/03/17 03:55:35;;;;;;;271.32;129.50;;;;;;;0.62;71.24;95731.41;1645909;87;21448;-50
2022/03/17 03:58:05;;;;;;;269.75;130.80;;;;;;;0.63;71.23;95732.20;1649969;85;21175;-50
2022/03/17 04:00:33;;;;;;;221.10;110.72;;;;;;;0.63;71.32;95730.27;1629579;88;21489;-50
2022/03/17 04:03:03;;;;;;;198.17;102.97;;;;;;;0.65;71.30;95732.63;1639235;87;21058;-51
2022/03/17 04:05:33;;;;;;;203.22;101.45;;;;;;;0.64;71.40;95731.86;1641146;86;21071;-50
2022/03/17 04:08:02;;;;;;;206.32;105.72;;;;;;;0.63;71.37;95723.49;1698893;84;21046;-50
2022/03/17 04:10:30;;;;;;;194.70;96.37;;;;;;;0.61;71.42;95729.08;1699269;83;21784;-50
2022/03/17 04:12:57;;;;;;;181.55;96.50;;;;;;;0.59;71.40;95742.95;1700347;83;21045;-50
2022/03/17 04:15:25;;;;;;;203.22;101.97;;;;;;;0.57;71.47;95746.59;1698909;83;21041;-50
2022/03/17 04:17:54;;;;;;;187.00;96.15;;;;;;;0.51;71.52;95752.11;1701060;83;20982;-55
2022/03/17 04:20:22;;;;;;;164.93;86.28;;;;;;;0.52;71.71;95755.02;1699801;84;21053;-49
2022/03/17 04:22:50;;;;;;;178.20;92.57;;;;;;;0.60;71.98;95760.77;1700256;83;21139;-50
2022/03/17 04:25:19;;;;;;;180.25;91.55;;;;;;;0.65;71.63;95752.93;1699983;83;21001;-51
2022/03/17 04:27:47;;;;;;;231.60;109.83;;;;;;;0.64;71.50;95760.28;1699502;84;21100;-50
2022/03/17 04:30:14;;;;;;;193.02;98.30;;;;;;;0.64;71.80;95767.05;1700486;83;21029;-51
2022/03/17 04:32:42;;;;;;;187.47;95.60;;;;;;;0.69;71.69;95766.75;1701051;83;21019;-50
2022/03/17 04:35:09;;;;;;;179.50;94.60;;;;;;;0.75;71.79;95777.48;1698795;84;21718;-50
2022/03/17 04:37:38;;;;;;;172.50;91.85;;;;;;;0.79;71.49;95778.91;1700706;83;21474;-50
2022/03/17 04:40:07;;;;;;;194.47;98.07;;;;;;;0.76;71.32;95783.11;1699084;84;20977;-51
2022/03/17 04:42:34;;;;;;;195.03;100.45;;;;;;;0.75;71.55;95784.26;1702138;82;21711;-50
2022/03/17 04:45:01;;;;;;;184.28;95.95;;;;;;;0.80;71.68;95781.25;1701849;83;21045;-51
2022/03/17 04:47:30;;;;;;;179.50;96.57;;;;;;;0.88;71.51;95785.66;1699796;84;21199;-51
2022/03/17 04:49:57;;;;;;;205.92;103.07;;;;;;;0.97;71.45;95784.84;1700148;83;21050;-50
2022/03/17 04:55:10;;;;;;;212.60;117.70;;;;;;;1.20;70.92;95795.13;1700449;83;21220;-50
2022/03/17 04:57:40;;;;;;;209.98;115.97;;;;;;;1.18;70.66;95797.39;1699849;83;21501;-51
2022/03/17 05:00:09;;;;;;;192.35;107.72;;;;;;;1.22;71.02;95796.91;1699977;84;21841;-50
2022/03/17 05:02:38;;;;;;;176.63;97.33;;;;;;;1.32;71.06;95803.64;1698896;82;21017;-49
2022/03/17 05:05:07;;;;;;;192.37;103.30;;;;;;;1.41;70.37;95806.88;1701756;83;20970;-50
2022/03/17 05:07:34;;;;;;;196.47;107.50;;;;;;;1.40;70.13;95812.89;1700637;83;21057;-52
2022/03/17 05:10:02;;;;;;;199.23;107.63;;;;;;;1.33;70.08;95813.34;1700743;82;21053;-50
2022/03/17 05:12:30;;;;;;;178.45;99.50;;;;;;;1.29;70.40;95810.56;1699120;84;21158;-50
2022/03/17 05:14:58;;;;;;;177.82;96.92;;;;;;;1.32;70.32;95822.03;1699393;84;21050;-51
2022/03/17 05:17:25;;;;;;;193.17;105.03;;;;;;;1.34;70.52;95819.73;1701226;83;21022;-50
2022/03/17 05:19:54;;;;;;;162.37;87.82;;;;;;;1.38;70.85;95823.31;1699820;82;21061;-50
2022/03/17 05:22:22;;;;;;;137.32;74.95;;;;;;;1.52;70.91;95823.52;1699212;84;21217;-51
2022/03/17 05:24:50;;;;;;;157.65;81.40;;;;;;;1.61;71.05;95840.90;1699793;84;21248;-50
2022/03/17 05:27:18;;;;;;;133.65;70.20;;;;;;;1.70;71.04;95845.52;1699983;83;21054;-49
2022/03/17 05:29:47;;;;;;;86.35;46.23;;;;;;;1.75;70.96;95847.34;1701462;83;21176;-50
2022/03/17 05:32:14;;;;;;;72.85;41.28;;;;;;;1.83;70.56;95855.80;1699344;83;20977;-50
2022/03/17 05:34:42;;;;;;;63.65;34.73;;;;;;;1.86;70.13;95857.22;1699428;84;21054;-50
2022/03/17 05:37:09;;;;;;;67.50;37.90;;;;;;;1.86;69.69;95863.20;1700159;84;21249;-51
2022/03/17 05:39:37;;;;;;;64.87;35.75;;;;;;;1.85;69.42;95868.42;1701295;84;21566;-49
2022/03/17 05:42:06;;;;;;;56.00;31.73;;;;;;;1.85;69.12;95867.86;1701461;84;21006;-50
2022/03/17 05:44:34;;;;;;;52.30;32.40;;;;;;;1.89;68.85;95871.96;1698326;84;20979;-50
2022/03/17 05:47:02;;;;;;;50.95;31.35;;;;;;;1.96;68.35;95870.73;1699944;83;21501;-52
2022/03/17 05:49:30;;;;;;;52.48;31.45;;;;;;;2.02;68.13;95876.05;1700315;83;21248;-49
2022/03/17 05:51:58;;;;;;;52.48;29.07;;;;;;;2.01;67.61;95870.41;1711325;82;21527;-50
2022/03/17 05:54:26;;;;;;;48.90;27.85;;;;;;;1.99;67.35;95870.00;1721373;82;20967;-52
2022/03/17 05:56:54;;;;;;;48.30;29.85;;;;;;;1.95;67.11;95866.45;1726604;82;21057;-50
2022/03/17 05:59:21;;;;;;;55.50;32.70;;;;;;;1.99;67.04;95875.42;1717222;82;21045;-50
2022/03/17 06:01:49;;;;;;;55.20;29.23;;;;;;;2.08;66.86;95878.64;1719098;83;21769;-50
2022/03/17 06:04:16;;;;;;;44.73;27.80;;;;;;;2.15;66.53;95871.98;1712075;83;21538;-50
2022/03/17 06:06:43;;;;;;;39.30;24.47;;;;;;;2.24;66.15;95884.70;1709209;83;21694;-51
2022/03/17 06:09:12;;;;;;;48.17;28.27;;;;;;;2.23;65.66;95888.56;1711103;83;21570;-53
2022/03/17 06:11:41;;;;;;;51.18;30.88;;;;;;;2.23;65.70;95888.56;1714225;83;21208;-49
2022/03/17 06:14:08;;;;;;;55.28;31.05;;;;;;;2.27;65.50;95888.04;1708657;82;21315;-55
2022/03/17 06:16:37;;;;;;;73.55;39.13;;;;;;;2.34;65.36;95886.80;1712503;83;21018;-54
2022/03/17 06:19:06;;;;;;;86.02;44.88;;;;;;;2.50;64.90;95888.77;1705524;83;21601;-50
2022/03/17 06:21:33;;;;;;;65.50;36.03;;;;;;;2.55;64.66;95882.45;1706051;83;21483;-51
2022/03/17 06:24:02;;;;;;;53.80;32.40;;;;;;;2.67;64.43;95878.13;1707535;83;21573;-51
2022/03/17 06:26:30;;;;;;;62.23;33.98;;;;;;;2.81;63.83;95884.30;1707620;83;21111;-49
2022/03/17 06:28:57;;;;;;;51.80;30.90;;;;;;;2.87;63.78;95882.84;1708809;83;21184;-51
2022/03/17 06:31:26;;;;;;;57.95;34.15;;;;;;;3.04;63.48;95885.75;1710667;83;20999;-51
2022/03/17 06:33:54;;;;;;;46.98;28.98;;;;;;;3.13;62.68;95890.91;1709587;83;21050;-52
2022/03/17 06:36:22;;;;;;;48.30;28.87;;;;;;;3.19;62.38;95884.77;1715404;82;21066;-51
2022/03/17 06:38:50;;;;;;;52.35;32.75;;;;;;;3.37;61.38;95893.09;1713798;82;21216;-51
2022/03/17 06:41:17;;;;;;;72.82;38.90;;;;;;;3.50;60.91;95893.25;1718093;82;21065;-52
2022/03/17 06:43:44;;;;;;;62.27;36.50;;;;;;;3.55;60.17;95885.33;1728527;82;21098;-51
2022/03/17 06:46:13;;;;;;;56.37;32.08;;;;;;;3.55;59.63;95902.42;1717732;82;21104;-52
2022/03/17 06:48:40;;;;;;;44.00;25.95;;;;;;;3.54;59.43;95893.28;1694308;83;21077;-52
2022/03/17 06:51:07;;;;;;;36.70;24.55;;;;;;;3.54;58.61;95896.01;1696616;83;21255;-52
2022/03/17 06:53:35;;;;;;;38.90;23.15;;;;;;;3.55;58.34;95903.01;1707007;82;21102;-54
2022/03/17 06:56:04;;;;;;;33.10;20.50;;;;;;;3.59;57.92;95907.34;1703949;81;21030;-53
2022/03/17 06:58:32;;;;;;;36.25;23.98;;;;;;;3.62;57.92;95901.14;1698608;82;21005;-53
2022/03/17 07:00:59;;;;;;;31.27;19.17;;;;;;;3.72;56.77;95900.44;1721272;82;21136;-53
2022/03/17 07:03:28;;;;;;;27.27;16.80;;;;;;;3.81;55.50;95917.26;1701366;82;21070;-55
2022/03/17 07:05:57;;;;;;;26.25;18.85;;;;;;;3.84;53.36;95911.06;1697845;82;21481;-51
2022/03/17 07:08:24;;;;;;;24.98;16.62;;;;;;;3.84;53.99;95917.86;1689274;83;21047;-58
2022/03/17 07:10:52;;;;;;;23.05;14.25;;;;;;;3.84;53.51;95916.50;1702920;82;21624;-57
2022/03/17 07:13:22;;;;;;;18.62;14.15;;;;;;;3.83;52.18;95917.66;1672091;84;20987;-57
2022/03/17 07:15:49;;;;;;;24.95;14.40;;;;;;;3.76;51.58;95924.98;1656391;84;21471;-58
2022/03/17 07:18:17;;;;;;;20.05;13.20;;;;;;;3.67;51.18;95921.80;1657365;84;21255;-59
2022/03/17 07:20:48;;;;;;;20.85;13.55;;;;;;;3.60;50.42;95925.22;1660381;84;21109;-52
2022/03/17 07:23:15;;;;;;;23.62;14.83;;;;;;;3.55;50.71;95920.69;1664276;84;21062;-53
2022/03/17 07:25:43;;;;;;;25.80;17.42;;;;;;;3.43;50.45;95922.31;1706264;82;21046;-55
2022/03/17 07:28:13;;;;;;;23.15;14.93;;;;;;;3.38;51.09;95925.97;1705401;82;21104;-53
2022/03/17 07:30:41;;;;;;;30.80;16.50;;;;;;;3.41;51.10;95927.34;1688446;83;21052;-54
2022/03/17 07:33:09;;;;;;;20.35;13.05;;;;;;;3.38;50.91;95919.93;1694483;82;21252;-55
2022/03/17 07:35:37;;;;;;;24.02;14.85;;;;;;;3.36;50.75;95922.80;1702746;82;21500;-61
2022/03/17 07:38:05;;;;;;;15.95;12.95;;;;;;;3.33;50.85;95931.72;1703982;82;21022;-55
2022/03/17 07:40:34;;;;;;;20.65;12.93;;;;;;;3.36;50.04;95932.33;1696144;81;21747;-54
2022/03/17 07:43:02;;;;;;;15.93;12.43;;;;;;;3.38;49.40;95930.81;1692032;82;21051;-56
2022/03/17 07:45:32;;;;;;;28.10;14.50;;;;;;;3.40;49.62;95930.45;1705450;82;22173;-55
2022/03/17 07:48:05;;;;;;;22.13;13.08;;;;;;;3.40;49.16;95935.89;1700816;82;21598;-54
2022/03/17 07:50:33;;;;;;;20.52;12.65;;;;;;;3.48;49.20;95937.52;1684422;82;21010;-54
2022/03/17 07:53:00;;;;;;;20.20;13.43;;;;;;;3.56;47.87;95935.30;1701844;81;21378;-53
2022/03/17 07:55:28;;;;;;;19.98;13.32;;;;;;;3.66;48.26;95931.12;1702823;81;21101;-54
2022/03/17 07:57:56;;;;;;;18.45;12.03;;;;;;;3.82;47.65;95938.44;1709490;82;21113;-53
2022/03/17 08:00:23;;;;;;;20.05;12.88;;;;;;;4.00;48.12;95944.26;1705433;82;21045;-51
2022/03/17 08:02:51;;;;;;;30.45;17.20;;;;;;;4.17;47.35;95938.18;1695341;83;21013;-52
2022/03/17 08:05:19;;;;;;;28.45;18.62;;;;;;;4.31;46.61;95945.11;1689287;83;21380;-53
2022/03/17 08:07:46;;;;;;;42.53;18.98;;;;;;;4.42;46.86;95944.59;1688621;82;21058;-54
2022/03/17 08:10:15;;;;;;;24.27;14.58;;;;;;;4.56;46.56;95947.42;1697385;82;21520;-55
2022/03/17 08:12:46;;;;;;;19.75;13.53;;;;;;;4.69;46.27;95950.61;1700617;82;21480;-55
2022/03/17 08:15:13;;;;;;;18.25;12.63;;;;;;;4.77;45.54;95944.82;1701790;83;21095;-54
2022/03/17 08:17:43;;;;;;;20.80;14.10;;;;;;;4.76;45.60;95948.70;1692407;82;21572;-54
2022/03/17 08:20:11;;;;;;;18.90;13.38;;;;;;;4.77;45.45;95947.55;1667790;83;21086;-54
2022/03/17 08:22:42;;;;;;;19.35;12.68;;;;;;;4.78;44.67;95944.25;1700326;81;21528;-55
2022/03/17 08:25:14;;;;;;;20.82;13.58;;;;;;;4.89;45.01;95941.78;1707956;82;21084;-54
2022/03/17 08:27:43;;;;;;;34.88;16.90;;;;;;;5.05;44.67;95944.19;1704302;82;21155;-54
2022/03/17 08:30:12;;;;;;;24.40;14.73;;;;;;;5.17;43.27;95950.69;1696640;83;21815;-53
2022/03/17 08:32:40;;;;;;;27.30;16.40;;;;;;;5.18;43.14;95946.19;1709952;81;21034;-54
2022/03/17 08:35:10;;;;;;;24.43;15.48;;;;;;;5.19;43.39;95949.72;1706584;82;21146;-54
2022/03/17 08:37:41;;;;;;;24.07;15.00;;;;;;;5.28;43.83;95950.92;1677342;82;21094;-58
2022/03/17 08:40:10;;;;;;;21.80;14.15;;;;;;;5.39;43.15;95947.67;1695757;82;21068;-55
2022/03/17 08:42:39;;;;;;;18.67;11.75;;;;;;;5.42;42.16;95952.35;1705716;82;21269;-54
2022/03/17 08:50:45;;;;;;;21.20;14.13;;;;;;;5.30;41.75;95955.41;1699517;82;21025;-54
2022/03/17 08:53:12;;;;;;;23.40;15.03;;;;;;;5.28;42.65;95949.56;1707707;82;21147;-54
2022/03/17 08:55:39;;;;;;;20.20;12.60;;;;;;;5.17;42.42;95963.73;1707865;82;21243;-53
2022/03/17 08:58:07;;;;;;;20.65;13.60;;;;;;;4.99;42.30;95966.95;1701585;81;21479;-53
2022/03/17 09:00:35;;;;;;;22.48;14.10;;;;;;;4.80;42.48;95967.22;1704351;82;21072;-55
2022/03/17 09:03:06;;;;;;;24.02;13.68;;;;;;;4.68;42.85;95962.11;1711490;82;22199;-55
2022/03/17 09:05:35;;;;;;;21.85;14.38;;;;;;;4.61;42.87;95956.59;1724692;82;21371;-54
2022/03/17 09:08:06;;;;;;;20.90;13.25;;;;;;;4.51;43.38;95961.41;1711848;82;21890;-55
2022/03/17 09:10:38;;;;;;;18.07;12.03;;;;;;;4.56;43.69;95956.95;1714156;81;20997;-53
2022/03/17 09:13:09;;;;;;;20.62;12.60;;;;;;;4.58;43.51;95962.80;1709798;81;22279;-53
2022/03/17 09:15:40;;;;;;;24.32;14.10;;;;;;;4.49;43.05;95961.00;1692922;82;21019;-53
2022/03/17 09:18:09;;;;;;;18.25;12.45;;;;;;;4.47;44.33;95965.26;1687716;82;21011;-54
2022/03/17 09:20:37;;;;;;;24.27;12.80;;;;;;;4.57;44.48;95954.43;1704872;82;21224;-54
2022/03/17 09:23:05;;;;;;;15.95;11.65;;;;;;;4.76;44.39;95960.98;1698827;83;20981;-54
2022/03/17 09:25:34;;;;;;;22.07;13.93;;;;;;;4.92;44.03;95953.28;1698487;81;21042;-55
2022/03/17 09:28:01;;;;;;;26.10;13.43;;;;;;;5.12;43.92;95956.52;1691687;83;21097;-55
2022/03/17 09:30:29;;;;;;;17.00;11.25;;;;;;;5.25;43.61;95953.06;1702146;82;21089;-53
2022/03/17 09:33:01;;;;;;;22.35;11.90;;;;;;;5.46;42.94;95962.69;1706923;82;21252;-53
2022/03/17 09:35:28;;;;;;;18.75;12.55;;;;;;;5.62;42.92;95961.77;1702846;82;21078;-53
2022/03/17 09:37:55;;;;;;;22.65;13.25;;;;;;;5.79;42.51;95962.44;1709996;82;20980;-51
2022/03/17 09:40:23;;;;;;;16.62;11.45;;;;;;;6.02;42.31;95966.39;1694876;83;21015;-55
2022/03/17 09:43:18;;;;;;;18.32;12.53;;;;;;;6.31;42.01;95963.09;1714870;81;21137;-54
2022/03/17 09:45:20;;;;;;;20.52;13.03;;;;;;;6.35;41.15;95970.70;1697510;82;21207;-54
2022/03/17 09:47:48;;;;;;;16.75;10.45;;;;;;;6.27;40.25;95966.39;1702939;82;21085;-54
2022/03/17 09:50:15;;;;;;;17.75;12.03;;;;;;;6.17;39.63;95978.11;1653258;82;21546;-56
2022/03/17 09:52:44;;;;;;;19.62;12.85;;;;;;;6.21;39.54;95970.69;1695473;82;21147;-54
2022/03/17 09:55:11;;;;;;;18.15;11.78;;;;;;;6.30;39.26;95977.93;1698485;82;21005;-54
2022/03/17 09:57:42;;;;;;;17.62;11.10;;;;;;;6.52;39.61;95976.75;1707293;82;21229;-57
2022/03/17 10:00:12;;;;;;;21.45;12.33;;;;;;;7.03;39.95;95979.23;1706530;83;20973;-57
2022/03/17 10:02:40;;;;;;;23.27;12.70;;;;;;;7.23;38.49;95972.93;1711046;82;21095;-55
2022/03/17 10:05:11;;;;;;;17.37;10.85;;;;;;;7.08;37.77;95978.24;1692245;82;21143;-56
2022/03/17 10:07:39;;;;;;;19.17;12.03;;;;;;;6.91;38.00;95973.39;1670836;83;21123;-54
2022/03/17 10:10:08;;;;;;;19.15;10.50;;;;;;;7.09;38.75;95975.70;1704226;82;21184;-55
2022/03/17 10:12:37;;;;;;;16.85;10.35;;;;;;;7.55;38.57;95974.94;1703632;81;21262;-55
2022/03/17 10:15:06;;;;;;;18.40;9.85;;;;;;;8.20;37.19;95975.02;1710143;81;21579;-58
2022/03/17 10:17:39;;;;;;;23.18;10.53;;;;;;;8.82;36.21;95976.31;1611596;86;22260;-58
2022/03/17 10:20:26;;;;;;;11.87;9.80;;;;;;;9.33;35.35;95978.33;1669084;83;21764;-51
2022/03/17 10:22:55;;;;;;;18.52;11.65;;;;;;;9.90;35.40;95975.09;1652594;85;21385;-56
2022/03/17 10:25:27;;;;;;;25.82;12.63;;;;;;;10.35;34.09;95972.34;1658611;85;21573;-55
2022/03/17 10:27:55;;;;;;;19.83;12.43;;;;;;;10.80;33.62;95972.38;1657449;85;21122;-58
2022/03/17 10:30:35;;;;;;;29.77;16.80;;;;;;;11.27;33.55;95973.12;1699083;83;21585;-59
2022/03/17 10:33:11;;;;;;;27.87;13.70;;;;;;;11.56;31.78;95976.33;1693074;82;21187;-56
2022/03/17 10:35:38;;;;;;;16.82;10.35;;;;;;;11.78;31.17;95976.70;1671279;84;21251;-54
2022/03/17 10:38:14;;;;;;;13.55;9.38;;;;;;;11.98;30.69;95972.73;1643302;85;21131;-55
2022/03/17 10:40:42;;;;;;;26.07;12.93;;;;;;;12.24;30.84;95982.03;1654575;83;21022;-55
2022/03/17 10:43:19;;;;;;;19.95;11.40;;;;;;;12.47;30.13;95984.05;1703806;81;21049;-53
2022/03/17 10:45:46;;;;;;;18.07;10.28;;;;;;;12.66;29.35;95979.06;1702647;82;21073;-54
2022/03/17 10:48:13;;;;;;;14.43;9.05;;;;;;;12.83;28.98;95973.12;1707660;82;21140;-55
2022/03/17 10:50:45;;;;;;;17.23;10.38;;;;;;;13.05;29.21;95976.19;1692338;82;21139;-55
2022/03/17 10:53:12;;;;;;;17.27;9.55;;;;;;;13.34;29.23;95982.52;1708942;82;21086;-56
2022/03/17 10:55:40;;;;;;;15.55;9.40;;;;;;;13.55;28.23;95984.72;1686458;82;21848;-60
2022/03/17 10:58:19;;;;;;;10.90;7.87;;;;;;;13.58;28.49;95974.95;1704366;82;21103;-61
2022/03/17 11:00:53;;;;;;;15.10;7.80;;;;;;;13.84;27.79;95982.11;1706036;82;21243;-61
2022/03/17 11:03:23;;;;;;;12.70;7.70;;;;;;;14.04;27.10;95975.04;1700013;82;22223;-55
2022/03/17 11:05:53;;;;;;;19.92;10.28;;;;;;;14.15;26.88;95981.05;1688820;83;21665;-56
2022/03/17 11:08:21;;;;;;;13.40;8.33;;;;;;;14.33;27.12;95977.19;1700559;81;21037;-56
2022/03/17 11:10:50;;;;;;;16.23;8.93;;;;;;;14.63;25.81;95977.42;1698089;81;21479;-57
2022/03/17 11:13:19;;;;;;;13.20;8.08;;;;;;;14.93;25.75;95971.28;1702442;82;21103;-56
2022/03/17 11:16:04;;;;;;;14.25;9.08;;;;;;;15.03;25.90;95972.32;1709769;82;21541;-55
2022/03/17 11:18:35;;;;;;;24.92;11.75;;;;;;;14.97;24.75;95972.73;1710244;82;21042;-57
2022/03/17 11:21:19;;;;;;;13.65;7.87;;;;;;;15.02;25.01;95985.26;1698427;82;21010;-55
2022/03/17 11:24:01;;;;;;;14.45;9.73;;;;;;;15.19;26.31;95981.12;1696934;83;21067;-53
2022/03/17 11:26:39;;;;;;;26.05;10.80;;;;;;;15.30;24.58;95988.49;1659527;83;21085;-55
2022/03/17 11:29:15;;;;;;;13.68;8.75;;;;;;;15.32;24.68;95984.69;1694440;82;21611;-56
2022/03/17 11:32:08;;;;;;;11.10;8.13;;;;;;;15.63;24.89;95983.58;1694707;83;21411;-56
2022/03/17 11:34:46;;;;;;;15.45;8.60;;;;;;;16.01;23.32;95976.45;1710072;82;21054;-53
2022/03/17 11:37:27;;;;;;;12.90;8.20;;;;;;;16.04;23.73;95984.66;1715316;82;21002;-54
2022/03/17 11:40:09;;;;;;;18.40;8.53;;;;;;;16.16;24.07;95979.66;1707248;82;21160;-54
2022/03/17 11:42:57;;;;;;;13.95;8.18;;;;;;;16.25;24.18;95976.94;1723400;82;21514;-54
2022/03/17 11:45:20;;;;;;;17.45;8.20;;;;;;;16.32;23.35;95978.05;1706561;82;21167;-54